Time;durP1;ratioP1;P1;durP2;ratioP2;P2;SDS_P1;SDS_P2;PMS_P1;PMS_P2;Temp;Humidity;BMP_temperature;BMP_pressure;BME280_temperature;BME280_humidity;BME280_pressure;Samples;Min_cycle;Max_cycle;Signal;HPM_P1;HPM_P2
2023/04/07 00:02:04;;;;;;;0.10;0.10;;;9.00;99.90;;;;;;5060225;28;21093;-81
2023/04/07 00:04:30;;;;;;;0.10;0.10;;;9.00;99.90;;;;;;5059919;28;20181;-81
2023/04/07 00:06:56;;;;;;;0.10;0.10;;;9.00;99.90;;;;;;5062590;28;20228;-80
2023/04/07 00:09:22;;;;;;;0.10;0.10;;;8.80;99.90;;;;;;5059092;28;20189;-81
2023/04/07 00:11:47;;;;;;;0.10;0.10;;;8.90;99.90;;;;;;5062385;28;20212;-80
2023/04/07 00:14:13;;;;;;;0.10;0.10;;;8.70;99.90;;;;;;5063468;28;20194;-80
2023/04/07 00:16:39;;;;;;;0.10;0.10;;;8.70;99.90;;;;;;5060913;28;20181;-80
2023/04/07 00:19:05;;;;;;;0.10;0.10;;;8.80;99.90;;;;;;5060340;28;20192;-80
2023/04/07 00:21:30;;;;;;;0.10;0.10;;;8.90;99.90;;;;;;5062710;28;20188;-81
2023/04/07 00:23:56;;;;;;;0.10;0.10;;;8.80;99.90;;;;;;5064712;28;20583;-81
2023/04/07 00:26:22;;;;;;;0.10;0.10;;;8.90;99.90;;;;;;5056111;28;20205;-81
2023/04/07 00:28:47;;;;;;;0.10;0.10;;;9.00;99.90;;;;;;5062560;28;20262;-80
2023/04/07 00:31:13;;;;;;;0.10;0.10;;;8.90;99.90;;;;;;5055088;28;20199;-81
2023/04/07 00:33:38;;;;;;;0.10;0.10;;;9.00;99.90;;;;;;5061283;28;20204;-81
2023/04/07 00:36:05;;;;;;;0.10;0.10;;;9.00;99.90;;;;;;5058063;28;20217;-80
2023/04/07 00:38:30;;;;;;;0.10;0.10;;;9.00;99.90;;;;;;5063088;28;20280;-81
2023/04/07 00:40:59;;;;;;;0.10;0.10;;;9.00;99.90;;;;;;5059949;28;20749;-81
2023/04/07 00:43:25;;;;;;;0.00;0.00;;;9.00;99.90;;;;;;5058603;28;20204;-82
2023/04/07 00:45:52;;;;;;;0.10;0.10;;;8.90;99.90;;;;;;5062493;28;20295;-81
2023/04/07 00:48:17;;;;;;;0.10;0.10;;;8.90;99.90;;;;;;5060365;28;20247;-80
2023/04/07 00:50:44;;;;;;;0.10;0.10;;;9.00;99.90;;;;;;5060305;28;20268;-81
2023/04/07 00:53:11;;;;;;;0.10;0.10;;;9.00;99.90;;;;;;5060568;28;20209;-81
2023/04/07 00:55:36;;;;;;;0.10;0.10;;;9.00;99.90;;;;;;5056382;28;20254;-80
2023/04/07 00:58:04;;;;;;;0.10;0.10;;;9.10;99.90;;;;;;5061248;28;20658;-81
2023/04/07 01:00:34;;;;;;;0.10;0.10;;;9.10;99.90;;;;;;5062357;28;20540;-81
2023/04/07 01:03:13;;;;;;;0.10;0.10;;;9.10;99.90;;;;;;5062183;28;21246;-81
2023/04/07 01:05:49;;;;;;;0.10;0.10;;;9.00;99.90;;;;;;5061863;28;20188;-80
2023/04/07 01:08:50;;;;;;;0.10;0.10;;;8.90;99.90;;;;;;5055115;28;20658;-81
2023/04/07 01:11:34;;;;;;;0.10;0.10;;;8.80;99.90;;;;;;5049067;28;20189;-81
2023/04/07 01:14:00;;;;;;;0.10;0.10;;;8.90;99.90;;;;;;5063002;28;20181;-80
2023/04/07 01:16:33;;;;;;;0.10;0.10;;;9.00;99.90;;;;;;5054495;28;20684;-81
2023/04/07 01:19:39;;;;;;;0.07;0.07;;;9.00;99.90;;;;;;5061711;28;20181;-80
2023/04/07 01:22:19;;;;;;;0.10;0.10;;;9.00;99.90;;;;;;5056639;28;20237;-80
2023/04/07 01:25:01;;;;;;;0.10;0.10;;;9.10;99.90;;;;;;5059215;28;20188;-81
2023/04/07 01:27:26;;;;;;;0.10;0.10;;;9.10;99.90;;;;;;5059693;28;20205;-81
2023/04/07 01:29:53;;;;;;;0.10;0.10;;;9.10;99.90;;;;;;5062382;28;20268;-81
2023/04/07 01:32:19;;;;;;;0.10;0.10;;;9.10;99.90;;;;;;5057889;28;20232;-81
2023/04/07 01:34:48;;;;;;;0.10;0.10;;;9.10;99.90;;;;;;5056472;28;20196;-80
2023/04/07 01:37:16;;;;;;;0.10;0.10;;;9.00;99.90;;;;;;5057078;28;20740;-80
2023/04/07 01:39:41;;;;;;;0.10;0.10;;;9.10;99.90;;;;;;5077637;28;20320;-80
2023/04/07 01:42:07;;;;;;;0.10;0.10;;;9.00;99.90;;;;;;5058496;28;20208;-81
2023/04/07 01:44:34;;;;;;;0.00;0.00;;;9.00;99.90;;;;;;5057628;28;20179;-80
2023/04/07 01:47:01;;;;;;;0.10;0.10;;;8.90;99.90;;;;;;5058565;28;20295;-80
2023/04/07 01:49:28;;;;;;;0.10;0.10;;;8.90;99.90;;;;;;5059407;28;20193;-80
2023/04/07 01:51:55;;;;;;;0.10;0.10;;;8.90;99.90;;;;;;5060018;28;21024;-80
2023/04/07 01:54:20;;;;;;;0.10;0.10;;;8.90;99.90;;;;;;5063942;28;20181;-81
2023/04/07 01:56:46;;;;;;;0.10;0.10;;;8.60;99.90;;;;;;5061339;28;21081;-80
2023/04/07 01:59:11;;;;;;;0.10;0.10;;;8.40;99.90;;;;;;5058288;28;20185;-81
2023/04/07 02:01:37;;;;;;;0.10;0.10;;;8.50;99.90;;;;;;5063517;28;20688;-81
2023/04/07 02:04:19;;;;;;;0.10;0.10;;;8.40;99.90;;;;;;5065971;28;20231;-80
2023/04/07 02:06:51;;;;;;;0.03;0.03;;;8.20;99.90;;;;;;5062193;28;20726;-82
2023/04/07 02:09:20;;;;;;;0.10;0.10;;;8.40;99.90;;;;;;5064169;28;20669;-80
2023/04/07 02:11:47;;;;;;;0.10;0.10;;;8.40;99.90;;;;;;5063545;28;20607;-81
2023/04/07 02:14:14;;;;;;;0.10;0.10;;;8.50;99.90;;;;;;5063504;28;20719;-81
2023/04/07 02:16:41;;;;;;;0.10;0.10;;;8.60;99.90;;;;;;5063400;28;20228;-80
2023/04/07 02:19:07;;;;;;;0.10;0.10;;;8.60;99.90;;;;;;5060707;28;20181;-81
2023/04/07 02:21:35;;;;;;;0.10;0.10;;;8.40;99.90;;;;;;5062498;28;20201;-81
2023/04/07 02:24:04;;;;;;;0.10;0.10;;;8.40;99.90;;;;;;5058816;28;20184;-81
2023/04/07 02:26:34;;;;;;;0.10;0.10;;;8.40;99.90;;;;;;5063571;28;20273;-80
2023/04/07 02:29:00;;;;;;;0.10;0.10;;;8.40;99.90;;;;;;5058138;28;20592;-81
2023/04/07 02:31:25;;;;;;;0.10;0.10;;;8.10;99.90;;;;;;5062972;28;20177;-80
2023/04/07 02:33:51;;;;;;;0.10;0.10;;;7.90;99.90;;;;;;5064988;28;20185;-80
2023/04/07 02:36:16;;;;;;;0.10;0.10;;;8.10;99.90;;;;;;5063929;28;20195;-81
2023/04/07 02:38:42;;;;;;;0.10;0.10;;;8.30;99.90;;;;;;5060290;28;20630;-81
2023/04/07 02:41:07;;;;;;;0.10;0.10;;;8.50;99.90;;;;;;5064491;28;20661;-80
2023/04/07 02:43:33;;;;;;;0.00;0.00;;;8.60;99.90;;;;;;5059800;28;20216;-81
2023/04/07 02:45:58;;;;;;;0.10;0.10;;;8.70;99.90;;;;;;5064123;28;20274;-81
2023/04/07 02:48:24;;;;;;;0.10;0.10;;;8.60;99.90;;;;;;5061480;28;20199;-81
2023/04/07 02:50:50;;;;;;;0.10;0.10;;;8.50;99.90;;;;;;5063081;28;20279;-81
2023/04/07 02:53:15;;;;;;;0.10;0.10;;;8.50;99.90;;;;;;5064505;28;20285;-81
2023/04/07 02:55:41;;;;;;;0.03;0.03;;;8.70;99.90;;;;;;5062300;28;20188;-81
2023/04/07 02:58:06;;;;;;;0.10;0.10;;;8.60;99.90;;;;;;5066792;28;20196;-82
2023/04/07 03:00:33;;;;;;;0.10;0.10;;;8.60;99.90;;;;;;5068989;28;20217;-81
2023/04/07 03:02:58;;;;;;;0.10;0.10;;;8.40;99.90;;;;;;5069140;28;20213;-81
2023/04/07 03:05:24;;;;;;;0.10;0.10;;;8.30;99.90;;;;;;5071672;28;20193;-81
2023/04/07 03:07:49;;;;;;;0.10;0.10;;;8.40;99.90;;;;;;5068202;28;20251;-80
2023/04/07 03:10:15;;;;;;;0.10;0.10;;;8.40;99.90;;;;;;5066064;28;20419;-81
2023/04/07 03:12:42;;;;;;;0.10;0.10;;;8.50;99.90;;;;;;5065985;28;20200;-81
2023/04/07 03:15:08;;;;;;;0.10;0.10;;;8.40;99.90;;;;;;5068135;28;20211;-80
2023/04/07 03:17:34;;;;;;;0.10;0.10;;;8.40;99.90;;;;;;5069124;28;20212;-80
2023/04/07 03:19:59;;;;;;;0.10;0.10;;;8.30;99.90;;;;;;5067469;28;20188;-80
2023/04/07 03:22:25;;;;;;;0.10;0.10;;;8.40;99.90;;;;;;5065016;28;20212;-81
2023/04/07 03:24:50;;;;;;;0.00;0.00;;;8.50;99.90;;;;;;5063391;28;20193;-81
2023/04/07 03:27:17;;;;;;;0.10;0.10;;;8.50;99.90;;;;;;5063994;28;20208;-80
2023/04/07 03:29:42;;;;;;;0.00;0.00;;;8.30;99.90;;;;;;5065489;28;20534;-80
2023/04/07 03:32:08;;;;;;;0.10;0.10;;;8.00;99.90;;;;;;5061223;28;20207;-80
2023/04/07 03:34:33;;;;;;;0.10;0.10;;;7.80;99.90;;;;;;5060556;28;20189;-81
2023/04/07 03:36:59;;;;;;;0.10;0.10;;;8.00;99.90;;;;;;5061481;28;20181;-80
2023/04/07 03:39:25;;;;;;;0.10;0.10;;;8.10;99.90;;;;;;5060056;28;20193;-80
2023/04/07 03:41:50;;;;;;;0.10;0.10;;;8.10;99.90;;;;;;5064006;28;20254;-81
2023/04/07 03:44:16;;;;;;;0.10;0.10;;;8.20;99.90;;;;;;5062374;28;20197;-80
2023/04/07 03:46:44;;;;;;;0.10;0.10;;;8.40;99.90;;;;;;5063641;28;20215;-80
2023/04/07 03:49:10;;;;;;;0.10;0.10;;;8.50;99.90;;;;;;5066441;28;20176;-81
2023/04/07 03:51:35;;;;;;;0.10;0.10;;;8.50;99.90;;;;;;5060958;28;20200;-80
2023/04/07 03:54:01;;;;;;;0.10;0.10;;;8.50;99.90;;;;;;5064402;28;20220;-81
2023/04/07 03:56:27;;;;;;;0.10;0.10;;;8.40;99.90;;;;;;5062379;28;20185;-80
2023/04/07 03:58:52;;;;;;;0.10;0.10;;;8.20;99.90;;;;;;5066241;28;20192;-80
2023/04/07 04:01:18;;;;;;;0.10;0.10;;;8.20;99.90;;;;;;5062799;28;20189;-81
2023/04/07 04:03:43;;;;;;;0.00;0.00;;;8.20;99.90;;;;;;5061762;28;20277;-80
2023/04/07 04:06:09;;;;;;;0.10;0.10;;;8.40;99.90;;;;;;5065094;28;20567;-81
2023/04/07 04:08:34;;;;;;;0.10;0.10;;;8.40;99.90;;;;;;5059969;28;20180;-80
2023/04/07 04:11:00;;;;;;;0.10;0.10;;;8.40;99.90;;;;;;5059264;28;20242;-80
2023/04/07 04:13:26;;;;;;;0.10;0.10;;;8.50;99.90;;;;;;5056835;28;20208;-81
2023/04/07 04:15:51;;;;;;;0.10;0.10;;;8.60;99.90;;;;;;5061749;28;20191;-80
2023/04/07 04:18:17;;;;;;;0.10;0.10;;;8.50;99.90;;;;;;5059958;28;20679;-81
2023/04/07 04:20:43;;;;;;;0.10;0.10;;;8.60;99.90;;;;;;5059555;28;20184;-81
2023/04/07 04:23:08;;;;;;;0.10;0.10;;;8.50;99.90;;;;;;5057526;28;20201;-81
2023/04/07 04:25:34;;;;;;;0.10;0.10;;;8.40;99.90;;;;;;5062238;28;20254;-80
2023/04/07 04:28:00;;;;;;;0.10;0.10;;;8.40;99.90;;;;;;5060568;28;20185;-81
2023/04/07 04:30:25;;;;;;;0.07;0.07;;;8.30;99.90;;;;;;5060124;28;20200;-80
2023/04/07 04:32:52;;;;;;;0.10;0.10;;;8.40;99.90;;;;;;5061658;28;20209;-81
2023/04/07 04:35:17;;;;;;;0.10;0.10;;;8.40;99.90;;;;;;5061383;28;20658;-81
2023/04/07 04:37:43;;;;;;;0.10;0.10;;;8.10;99.90;;;;;;5055437;28;20241;-80
2023/04/07 04:40:09;;;;;;;0.10;0.10;;;8.00;99.90;;;;;;5058826;28;20181;-81
2023/04/07 04:42:35;;;;;;;0.10;0.10;;;8.10;99.90;;;;;;5060309;28;20201;-80
2023/04/07 04:45:00;;;;;;;0.10;0.10;;;8.30;99.90;;;;;;5060720;28;20652;-81
2023/04/07 04:47:26;;;;;;;0.10;0.10;;;8.30;99.90;;;;;;5060781;28;20226;-81
2023/04/07 04:49:51;;;;;;;0.10;0.10;;;8.10;99.90;;;;;;5055015;28;20683;-81
2023/04/07 04:52:17;;;;;;;0.10;0.10;;;8.00;99.90;;;;;;5056790;28;20317;-81
2023/04/07 04:54:42;;;;;;;0.10;0.10;;;8.00;99.90;;;;;;5063380;28;20216;-80
2023/04/07 04:57:08;;;;;;;0.00;0.00;;;8.00;99.90;;;;;;5057732;28;20235;-80
2023/04/07 04:59:34;;;;;;;0.10;0.10;;;8.00;99.90;;;;;;5062078;28;20201;-80
2023/04/07 05:01:59;;;;;;;0.07;0.07;;;8.00;99.90;;;;;;5060808;28;20596;-80
2023/04/07 05:04:27;;;;;;;0.10;0.10;;;8.00;99.90;;;;;;5064275;28;20717;-80
2023/04/07 05:06:52;;;;;;;0.10;0.10;;;8.20;99.90;;;;;;5062433;28;20772;-79
2023/04/07 05:09:18;;;;;;;0.10;0.10;;;8.40;99.90;;;;;;5062938;28;20252;-79
2023/04/07 05:11:43;;;;;;;0.10;0.10;;;8.40;99.90;;;;;;5063399;28;20173;-80
2023/04/07 05:14:09;;;;;;;0.10;0.10;;;8.20;99.90;;;;;;5063661;28;20185;-80
2023/04/07 05:16:35;;;;;;;0.10;0.10;;;8.20;99.90;;;;;;5063953;28;20199;-81
2023/04/07 05:19:01;;;;;;;0.10;0.10;;;8.00;99.90;;;;;;5062659;28;20181;-82
2023/04/07 05:21:26;;;;;;;0.10;0.10;;;8.00;99.90;;;;;;5066639;28;20185;-82
2023/04/07 05:23:52;;;;;;;0.10;0.10;;;8.00;99.90;;;;;;5063532;28;20192;-81
2023/04/07 05:26:18;;;;;;;0.10;0.10;;;8.00;99.90;;;;;;5060164;28;20209;-82
2023/04/07 05:28:43;;;;;;;0.10;0.10;;;8.00;99.90;;;;;;5069362;28;20196;-81
2023/04/07 05:31:09;;;;;;;0.10;0.10;;;8.10;99.90;;;;;;5064987;28;20276;-81
2023/04/07 05:33:35;;;;;;;0.00;0.00;;;8.20;99.90;;;;;;5062059;28;20689;-81
2023/04/07 05:36:02;;;;;;;0.10;0.10;;;8.30;99.90;;;;;;5064452;28;20206;-80
2023/04/07 05:38:27;;;;;;;0.07;0.07;;;8.30;99.90;;;;;;5065423;28;20197;-81
2023/04/07 05:40:53;;;;;;;0.00;0.00;;;8.10;99.90;;;;;;5068044;28;20198;-80
2023/04/07 05:43:18;;;;;;;0.10;0.10;;;8.10;99.90;;;;;;5070092;28;20252;-81
2023/04/07 05:45:44;;;;;;;0.10;0.10;;;8.30;99.90;;;;;;5065293;28;20185;-81
2023/04/07 05:48:10;;;;;;;0.10;0.10;;;8.20;99.90;;;;;;5065484;28;20189;-81
2023/04/07 05:50:36;;;;;;;0.10;0.10;;;8.40;99.90;;;;;;5061954;28;20254;-81
2023/04/07 05:53:01;;;;;;;0.10;0.10;;;8.20;99.90;;;;;;5062222;28;20207;-81
2023/04/07 05:55:27;;;;;;;0.10;0.10;;;8.20;99.90;;;;;;5067138;28;20188;-80
2023/04/07 05:57:52;;;;;;;0.10;0.10;;;8.20;99.90;;;;;;5069276;28;20199;-80
2023/04/07 06:00:18;;;;;;;0.10;0.10;;;8.20;99.90;;;;;;5070687;28;20216;-80
2023/04/07 06:02:44;;;;;;;0.10;0.10;;;8.20;99.90;;;;;;5064163;28;20229;-80
2023/04/07 06:05:10;;;;;;;0.10;0.10;;;8.20;99.90;;;;;;5062635;28;20241;-80
2023/04/07 06:07:35;;;;;;;0.10;0.10;;;8.00;99.90;;;;;;5068389;28;20610;-81
2023/04/07 06:10:01;;;;;;;0.10;0.10;;;7.80;99.90;;;;;;5065861;28;20177;-80
2023/04/07 06:12:26;;;;;;;0.10;0.10;;;7.80;99.90;;;;;;5065405;28;20295;-80
2023/04/07 06:14:54;;;;;;;0.10;0.10;;;7.70;99.90;;;;;;5063330;28;20180;-80
2023/04/07 06:17:20;;;;;;;0.10;0.10;;;7.70;99.90;;;;;;5068937;28;20188;-80
2023/04/07 06:19:45;;;;;;;0.10;0.10;;;7.80;99.90;;;;;;5063756;28;20189;-81
2023/04/07 06:22:11;;;;;;;0.10;0.10;;;7.70;99.90;;;;;;5065511;28;20205;-80
2023/04/07 06:24:36;;;;;;;0.10;0.10;;;7.80;99.90;;;;;;5066483;28;20194;-80
2023/04/07 06:27:02;;;;;;;0.10;0.10;;;7.80;99.90;;;;;;5064618;28;20212;-81
2023/04/07 06:29:29;;;;;;;0.10;0.10;;;8.00;99.90;;;;;;5063272;28;20185;-80
2023/04/07 06:31:54;;;;;;;0.10;0.10;;;7.70;99.90;;;;;;5062333;28;20209;-81
2023/04/07 06:34:20;;;;;;;0.10;0.10;;;7.90;99.90;;;;;;5060512;28;20258;-81
2023/04/07 06:36:46;;;;;;;0.10;0.10;;;8.10;99.90;;;;;;5064951;28;20234;-80
2023/04/07 06:39:11;;;;;;;0.10;0.10;;;8.30;99.90;;;;;;5063666;28;20188;-80
2023/04/07 06:41:37;;;;;;;0.10;0.10;;;8.60;99.90;;;;;;5065582;28;21245;-80
2023/04/07 06:44:03;;;;;;;0.10;0.10;;;8.80;99.90;;;;;;5063990;28;20197;-81
2023/04/07 06:46:29;;;;;;;0.10;0.10;;;8.80;99.90;;;;;;5061576;28;20712;-80
2023/04/07 06:48:55;;;;;;;0.10;0.10;;;8.80;99.90;;;;;;5066062;28;20362;-80
2023/04/07 06:51:20;;;;;;;0.10;0.10;;;8.60;99.90;;;;;;5070619;28;20196;-79
2023/04/07 06:53:47;;;;;;;0.10;0.10;;;8.80;99.90;;;;;;5067300;28;20205;-81
2023/04/07 06:56:13;;;;;;;0.10;0.10;;;9.00;99.90;;;;;;5070000;28;20185;-81
2023/04/07 06:58:39;;;;;;;0.10;0.10;;;9.20;99.90;;;;;;5065042;28;20256;-80
2023/04/07 07:01:05;;;;;;;0.10;0.10;;;9.20;99.90;;;;;;5060981;28;20674;-80
2023/04/07 07:03:32;;;;;;;0.10;0.10;;;9.20;99.90;;;;;;5057391;28;20244;-82
2023/04/07 07:05:58;;;;;;;0.10;0.10;;;9.30;99.90;;;;;;5063624;28;20205;-82
2023/04/07 07:08:25;;;;;;;0.10;0.10;;;9.50;99.90;;;;;;5064445;28;20189;-82
2023/04/07 07:10:51;;;;;;;0.10;0.10;;;9.50;99.90;;;;;;5065090;28;20181;-82
2023/04/07 07:13:18;;;;;;;0.10;0.10;;;9.50;99.90;;;;;;5061983;28;20200;-80
2023/04/07 07:15:44;;;;;;;0.10;0.10;;;9.00;99.90;;;;;;5064596;28;20658;-81
2023/04/07 07:18:11;;;;;;;0.10;0.10;;;8.70;99.90;;;;;;5061239;28;20192;-81
2023/04/07 07:20:36;;;;;;;0.10;0.10;;;8.40;99.90;;;;;;5065806;28;20197;-81
2023/04/07 07:23:02;;;;;;;0.10;0.10;;;8.30;99.90;;;;;;5056314;28;20772;-82
2023/04/07 07:25:27;;;;;;;0.10;0.10;;;8.30;99.90;;;;;;5066073;28;20626;-81
2023/04/07 07:27:53;;;;;;;0.10;0.10;;;8.30;99.90;;;;;;5059347;28;20270;-80
2023/04/07 07:30:23;;;;;;;0.10;0.10;;;8.70;99.90;;;;;;5060182;28;20188;-81
2023/04/07 07:32:49;;;;;;;0.10;0.10;;;8.90;99.90;;;;;;5056385;28;20287;-81
2023/04/07 07:35:15;;;;;;;0.10;0.10;;;8.90;99.90;;;;;;5059708;28;20181;-81
2023/04/07 07:37:43;;;;;;;0.10;0.10;;;8.50;99.90;;;;;;5056854;28;20188;-81
2023/04/07 07:40:09;;;;;;;0.10;0.10;;;8.40;99.90;;;;;;5063206;28;20558;-81
2023/04/07 07:42:35;;;;;;;0.10;0.10;;;8.30;99.90;;;;;;5063774;28;20260;-81
2023/04/07 07:45:01;;;;;;;0.10;0.10;;;8.30;99.90;;;;;;5060039;28;20289;-82
2023/04/07 07:47:26;;;;;;;0.00;0.00;;;8.40;99.90;;;;;;5060339;28;20288;-81
2023/04/07 07:49:52;;;;;;;0.10;0.10;;;8.40;99.90;;;;;;5066548;28;20185;-81
2023/04/07 07:52:19;;;;;;;0.10;0.10;;;8.40;99.90;;;;;;5066384;28;20815;-81
2023/04/07 07:54:45;;;;;;;0.10;0.10;;;8.50;99.90;;;;;;5061598;28;20189;-82
2023/04/07 07:57:11;;;;;;;0.10;0.10;;;8.60;99.90;;;;;;5057790;28;20197;-81
2023/04/07 07:59:39;;;;;;;0.10;0.10;;;9.00;99.90;;;;;;5060194;28;20190;-81
2023/04/07 08:02:06;;;;;;;0.00;0.00;;;9.10;99.90;;;;;;5059653;28;20319;-81
2023/04/07 08:04:31;;;;;;;0.10;0.10;;;9.50;99.90;;;;;;5052394;28;20196;-81
2023/04/07 08:06:57;;;;;;;0.10;0.10;;;9.80;99.90;;;;;;5064622;28;20213;-81
2023/04/07 08:09:23;;;;;;;0.10;0.10;;;9.90;99.90;;;;;;5055777;28;20284;-81
2023/04/07 08:11:48;;;;;;;0.10;0.10;;;9.60;99.90;;;;;;5057929;28;20288;-81
2023/04/07 08:14:14;;;;;;;0.10;0.10;;;9.90;99.90;;;;;;5064126;28;20196;-80
2023/04/07 08:16:40;;;;;;;0.10;0.10;;;10.10;99.90;;;;;;5059829;28;20196;-81
2023/04/07 08:19:05;;;;;;;0.00;0.00;;;10.30;99.90;;;;;;5054842;28;20314;-80
2023/04/07 08:21:31;;;;;;;0.10;0.10;;;10.40;99.90;;;;;;5059668;28;20216;-81
2023/04/07 08:23:57;;;;;;;0.10;0.10;;;10.60;99.90;;;;;;5058071;28;20204;-81
2023/04/07 08:26:23;;;;;;;0.10;0.10;;;10.80;99.90;;;;;;5060990;28;20233;-81
2023/04/07 08:28:52;;;;;;;0.10;0.10;;;10.90;99.90;;;;;;5056256;28;20192;-81
2023/04/07 08:31:18;;;;;;;0.10;0.10;;;10.80;99.90;;;;;;5059211;28;20180;-81
2023/04/07 08:33:44;;;;;;;0.10;0.10;;;10.70;99.90;;;;;;5059638;28;20209;-81
2023/04/07 08:36:10;;;;;;;0.10;0.10;;;10.70;99.90;;;;;;5058635;28;20257;-81
2023/04/07 08:38:35;;;;;;;0.10;0.10;;;10.80;99.90;;;;;;5060597;28;20272;-81
2023/04/07 08:41:11;;;;;;;0.10;0.10;;;10.90;99.90;;;;;;5060351;28;20276;-82
2023/04/07 08:43:38;;;;;;;0.10;0.10;;;11.00;99.90;;;;;;5061153;28;20200;-81
2023/04/07 08:46:04;;;;;;;0.20;0.20;;;11.10;99.90;;;;;;5062624;28;20212;-80
2023/04/07 08:48:34;;;;;;;0.10;0.10;;;11.00;99.90;;;;;;5061019;28;20184;-81
2023/04/07 08:51:07;;;;;;;0.10;0.10;;;10.90;99.90;;;;;;5061865;28;20183;-81
2023/04/07 08:53:42;;;;;;;0.10;0.10;;;11.00;99.90;;;;;;5061410;28;20287;-81
2023/04/07 08:56:10;;;;;;;0.10;0.10;;;11.00;99.90;;;;;;5059537;28;20178;-81
2023/04/07 08:58:36;;;;;;;0.10;0.10;;;11.20;99.90;;;;;;5056670;28;20189;-81
2023/04/07 09:01:05;;;;;;;0.10;0.10;;;11.30;99.90;;;;;;5059001;28;20196;-82
2023/04/07 09:03:32;;;;;;;0.10;0.10;;;11.50;99.90;;;;;;5059454;28;20250;-81
2023/04/07 09:06:00;;;;;;;0.10;0.10;;;11.50;99.90;;;;;;5064260;28;20552;-81
2023/04/07 09:08:25;;;;;;;0.10;0.10;;;11.40;99.90;;;;;;5061399;28;20184;-81
2023/04/07 09:10:52;;;;;;;0.10;0.10;;;11.40;99.90;;;;;;5069576;28;20188;-80
2023/04/07 09:13:17;;;;;;;0.10;0.10;;;11.60;99.90;;;;;;5082902;28;20803;-82
2023/04/07 09:15:43;;;;;;;0.10;0.10;;;11.90;99.90;;;;;;5074233;28;20194;-82
2023/04/07 09:18:10;;;;;;;0.10;0.10;;;12.00;99.90;;;;;;5081503;28;20189;-82
2023/04/07 09:21:03;;;;;;;0.10;0.10;;;12.20;99.90;;;;;;5076000;28;20197;-81
2023/04/07 09:23:36;;;;;;;0.10;0.10;;;12.20;99.90;;;;;;5071039;28;20211;-82
2023/04/07 09:26:23;;;;;;;0.10;0.10;;;12.30;99.90;;;;;;5067823;28;20199;-82
2023/04/07 09:28:54;;;;;;;0.10;0.10;;;12.30;99.90;;;;;;5063560;28;20256;-82
2023/04/07 09:31:40;;;;;;;0.10;0.10;;;12.40;99.90;;;;;;5069749;28;20181;-82
2023/04/07 09:34:26;;;;;;;0.07;0.07;;;12.60;99.90;;;;;;5067301;28;20185;-82
2023/04/07 09:36:52;;;;;;;0.10;0.10;;;12.50;99.90;;;;;;5069633;28;20236;-81
2023/04/07 09:39:18;;;;;;;0.10;0.10;;;12.50;99.90;;;;;;5069144;28;20179;-80
2023/04/07 09:41:44;;;;;;;0.10;0.10;;;12.40;99.90;;;;;;5067461;28;20197;-80
2023/04/07 09:44:10;;;;;;;0.10;0.10;;;12.30;99.90;;;;;;5065102;28;20230;-81
2023/04/07 09:46:46;;;;;;;0.10;0.10;;;12.30;99.90;;;;;;5065186;28;20727;-81
2023/04/07 09:49:12;;;;;;;0.10;0.10;;;12.10;99.90;;;;;;5068111;28;20716;-81
2023/04/07 09:51:37;;;;;;;0.10;0.10;;;12.00;99.90;;;;;;5068407;28;20197;-80
2023/04/07 09:54:03;;;;;;;0.10;0.10;;;11.80;99.90;;;;;;5067602;28;20681;-81
2023/04/07 09:56:29;;;;;;;0.10;0.10;;;11.70;99.90;;;;;;5066074;28;20193;-80
2023/04/07 09:58:56;;;;;;;0.10;0.10;;;11.70;99.90;;;;;;5064629;28;20339;-81
2023/04/07 10:01:22;;;;;;;0.10;0.10;;;11.60;99.90;;;;;;5065476;28;20464;-80
2023/04/07 10:03:49;;;;;;;0.10;0.10;;;11.50;99.90;;;;;;5067505;28;20228;-80
2023/04/07 10:06:15;;;;;;;0.10;0.10;;;11.50;99.90;;;;;;5069118;28;20216;-81
2023/04/07 10:08:41;;;;;;;0.10;0.10;;;11.80;99.90;;;;;;5067557;28;20260;-80
2023/04/07 10:11:08;;;;;;;0.10;0.10;;;11.70;99.90;;;;;;5064538;28;20200;-82
2023/04/07 10:13:38;;;;;;;0.10;0.10;;;11.80;99.90;;;;;;5066475;28;20226;-81
2023/04/07 10:16:06;;;;;;;0.10;0.10;;;11.90;99.90;;;;;;5063829;28;20651;-82
2023/04/07 10:18:33;;;;;;;0.10;0.10;;;12.10;99.90;;;;;;5064251;28;20190;-81
2023/04/07 10:21:00;;;;;;;0.10;0.10;;;12.20;99.90;;;;;;5064236;28;20177;-82
2023/04/07 10:23:41;;;;;;;0.10;0.10;;;12.20;99.90;;;;;;5064555;28;20326;-82
2023/04/07 10:26:07;;;;;;;0.10;0.10;;;12.30;99.90;;;;;;5060661;28;20346;-82
2023/04/07 10:28:36;;;;;;;0.10;0.10;;;12.20;99.90;;;;;;5061538;28;20193;-82
2023/04/07 10:31:02;;;;;;;0.10;0.10;;;12.20;99.90;;;;;;5061429;28;20184;-82
2023/04/07 10:33:48;;;;;;;0.10;0.10;;;12.30;99.90;;;;;;5063137;28;20202;-82
2023/04/07 10:36:16;;;;;;;0.10;0.10;;;12.60;99.90;;;;;;5063094;28;20220;-82
2023/04/07 10:38:41;;;;;;;0.10;0.10;;;12.70;99.90;;;;;;5067666;28;20890;-81
2023/04/07 10:41:38;;;;;;;0.10;0.10;;;12.80;99.90;;;;;;5071587;28;20188;-81
2023/04/07 10:44:09;;;;;;;0.10;0.10;;;12.90;99.90;;;;;;5061357;28;20185;-80
2023/04/07 10:46:44;;;;;;;0.10;0.10;;;13.10;99.90;;;;;;5064666;28;20207;-80
2023/04/07 10:49:10;;;;;;;0.10;0.10;;;13.30;99.90;;;;;;5065634;28;20187;-80
2023/04/07 10:51:36;;;;;;;0.10;0.10;;;13.30;99.90;;;;;;5062357;28;20268;-81
2023/04/07 10:54:15;;;;;;;0.10;0.10;;;13.50;99.90;;;;;;5064403;28;20614;-80
2023/04/07 10:57:03;;;;;;;0.10;0.10;;;13.50;99.90;;;;;;5056741;28;20184;-80
2023/04/07 10:59:29;;;;;;;0.10;0.10;;;13.60;99.90;;;;;;5066449;28;20204;-80
2023/04/07 11:02:13;;;;;;;0.10;0.10;;;13.70;99.90;;;;;;5063808;28;20222;-80
2023/04/07 11:04:43;;;;;;;0.10;0.10;;;13.60;99.90;;;;;;5059863;28;20197;-80
2023/04/07 11:07:10;;;;;;;0.10;0.10;;;13.50;99.90;;;;;;5060284;28;20218;-80
2023/04/07 11:09:36;;;;;;;0.10;0.10;;;13.40;99.90;;;;;;5063586;28;20191;-81
2023/04/07 11:12:03;;;;;;;0.10;0.10;;;13.50;99.90;;;;;;5064665;28;20645;-80
2023/04/07 11:14:31;;;;;;;0.10;0.10;;;13.40;99.90;;;;;;5057238;28;20183;-80
2023/04/07 11:16:57;;;;;;;0.10;0.10;;;13.20;99.90;;;;;;5064856;28;20182;-81
2023/04/07 11:19:23;;;;;;;0.10;0.10;;;13.00;99.90;;;;;;5067057;28;20196;-79
2023/04/07 11:21:49;;;;;;;0.10;0.10;;;12.80;99.90;;;;;;5065740;28;20293;-81
2023/04/07 11:24:37;;;;;;;0.10;0.10;;;12.40;99.90;;;;;;5062398;28;20199;-80
2023/04/07 11:27:03;;;;;;;0.10;0.10;;;12.60;99.90;;;;;;5062984;28;20275;-81
2023/04/07 11:29:32;;;;;;;0.10;0.10;;;12.70;99.90;;;;;;5064189;28;20633;-80
2023/04/07 11:31:59;;;;;;;0.10;0.10;;;12.80;99.90;;;;;;5058871;28;20231;-81
2023/04/07 11:34:32;;;;;;;0.10;0.10;;;12.90;99.90;;;;;;5062432;28;20190;-81
2023/04/07 11:37:17;;;;;;;0.10;0.10;;;12.70;99.90;;;;;;5057474;28;20218;-80
2023/04/07 11:39:45;;;;;;;0.10;0.10;;;12.80;99.90;;;;;;5057204;28;20192;-81
2023/04/07 11:42:10;;;;;;;0.10;0.10;;;12.90;99.90;;;;;;5059114;28;20248;-81
2023/04/07 11:44:45;;;;;;;0.10;0.10;;;12.50;99.90;;;;;;5067522;28;20224;-80
2023/04/07 11:47:10;;;;;;;0.10;0.10;;;12.70;99.90;;;;;;5066250;28;20655;-80
2023/04/07 11:49:44;;;;;;;0.10;0.10;;;12.80;99.90;;;;;;5063581;28;20276;-81
2023/04/07 11:52:09;;;;;;;0.10;0.10;;;12.80;99.90;;;;;;5063455;28;20224;-80
2023/04/07 11:54:53;;;;;;;0.10;0.10;;;12.90;99.90;;;;;;5064031;28;20532;-80
2023/04/07 11:57:26;;;;;;;0.10;0.10;;;12.80;99.90;;;;;;5059674;28;20563;-81
2023/04/07 12:00:05;;;;;;;0.10;0.10;;;13.00;99.90;;;;;;5064805;28;20194;-81
2023/04/07 12:02:32;;;;;;;0.10;0.10;;;13.10;99.90;;;;;;5055693;28;20224;-81
2023/04/07 12:04:58;;;;;;;0.10;0.10;;;13.00;99.90;;;;;;5059265;28;20666;-81
2023/04/07 12:07:24;;;;;;;0.10;0.10;;;12.80;99.90;;;;;;5059302;28;20248;-81
2023/04/07 12:09:49;;;;;;;0.10;0.10;;;12.20;99.90;;;;;;5057291;28;20203;-81
2023/04/07 12:12:26;;;;;;;0.10;0.10;;;12.30;99.90;;;;;;5059029;28;20215;-82
2023/04/07 12:14:51;;;;;;;0.10;0.10;;;12.40;99.90;;;;;;5061797;28;20535;-81
2023/04/07 12:17:21;;;;;;;0.10;0.10;;;12.50;99.90;;;;;;5060754;28;20189;-81
2023/04/07 12:19:47;;;;;;;0.10;0.10;;;12.40;99.90;;;;;;5060185;28;20254;-81
2023/04/07 12:22:12;;;;;;;0.10;0.10;;;12.10;99.90;;;;;;5056934;28;20623;-81
2023/04/07 12:24:38;;;;;;;0.10;0.10;;;12.00;99.90;;;;;;5062025;28;20742;-81
2023/04/07 12:27:03;;;;;;;0.10;0.10;;;12.20;99.90;;;;;;5055842;28;20520;-81
2023/04/07 12:29:29;;;;;;;0.10;0.10;;;12.20;99.90;;;;;;5058984;28;20188;-80
2023/04/07 12:31:55;;;;;;;0.10;0.10;;;12.20;99.90;;;;;;5056665;28;20607;-81
2023/04/07 12:34:21;;;;;;;0.10;0.10;;;12.20;99.90;;;;;;5064159;28;20238;-81
2023/04/07 12:36:47;;;;;;;0.10;0.10;;;12.20;99.90;;;;;;5064012;28;20196;-80
2023/04/07 12:39:12;;;;;;;0.10;0.10;;;12.10;99.90;;;;;;5066492;28;20662;-80
2023/04/07 12:41:38;;;;;;;0.10;0.10;;;12.10;99.90;;;;;;5066489;28;20193;-81
2023/04/07 12:44:04;;;;;;;0.10;0.10;;;12.00;99.90;;;;;;5066806;28;20226;-81
2023/04/07 12:46:30;;;;;;;0.10;0.10;;;11.40;99.90;;;;;;5061160;28;20239;-81
2023/04/07 12:48:56;;;;;;;0.10;0.10;;;11.00;99.90;;;;;;5062787;28;20235;-81
2023/04/07 12:51:21;;;;;;;0.10;0.10;;;11.00;99.90;;;;;;5062734;28;20654;-81
2023/04/07 12:53:47;;;;;;;0.10;0.10;;;11.20;99.90;;;;;;5058436;28;20216;-81
2023/04/07 12:56:13;;;;;;;0.10;0.10;;;11.40;99.90;;;;;;5062422;28;20282;-81